Time;durP1;ratioP1;P1;durP2;ratioP2;P2;SDS_P1;SDS_P2;PMS_P1;PMS_P2;Temp;Humidity;BMP_temperature;BMP_pressure;BME280_temperature;BME280_humidity;BME280_pressure;Samples;Min_cycle;Max_cycle;Signal;HPM_P1;HPM_P2
2022/03/13 00:02:00;;;;;;;1.95;1.60;;;;;;;;;;4984494;28;20061;-53
2022/03/13 00:04:26;;;;;;;1.55;1.45;;;;;;;;;;4984542;28;20026;-53
2022/03/13 00:06:52;;;;;;;2.13;1.75;;;;;;;;;;4984360;28;20045;-53
2022/03/13 00:09:25;;;;;;;2.38;1.90;;;;;;;;;;4984518;28;20041;-53
2022/03/13 00:11:52;;;;;;;2.30;1.70;;;;;;;;;;4985586;28;20034;-51
2022/03/13 00:14:20;;;;;;;2.00;1.50;;;;;;;;;;4983334;28;20030;-53
2022/03/13 00:16:49;;;;;;;1.42;1.33;;;;;;;;;;4973235;28;20031;-53
2022/03/13 00:19:17;;;;;;;2.47;1.50;;;;;;;;;;4974991;28;20564;-53
2022/03/13 00:21:49;;;;;;;2.28;1.65;;;;;;;;;;4984415;28;20061;-53
2022/03/13 00:24:20;;;;;;;2.28;1.70;;;;;;;;;;4983957;28;20416;-55
2022/03/13 00:26:47;;;;;;;3.10;1.77;;;;;;;;;;4984566;28;20030;-50
2022/03/13 00:29:13;;;;;;;2.03;1.50;;;;;;;;;;4968131;28;20031;-52
2022/03/13 00:31:39;;;;;;;1.83;1.30;;;;;;;;;;4983141;28;20034;-54
2022/03/13 00:34:08;;;;;;;2.97;2.00;;;;;;;;;;4964309;28;20953;-53
2022/03/13 00:36:34;;;;;;;2.05;1.70;;;;;;;;;;4978125;28;20057;-52
2022/03/13 00:39:01;;;;;;;2.20;1.80;;;;;;;;;;4983771;28;20046;-54
2022/03/13 00:41:27;;;;;;;1.95;1.70;;;;;;;;;;4984235;28;20026;-53
2022/03/13 00:43:53;;;;;;;2.85;2.15;;;;;;;;;;4984503;28;20133;-53
2022/03/13 00:46:19;;;;;;;1.75;1.63;;;;;;;;;;4969328;28;20041;-53
2022/03/13 00:48:46;;;;;;;2.42;1.73;;;;;;;;;;4984526;28;20026;-54
2022/03/13 00:51:12;;;;;;;5.50;2.28;;;;;;;;;;4984058;28;20101;-53
2022/03/13 00:53:38;;;;;;;2.85;1.90;;;;;;;;;;4984164;28;20450;-54
2022/03/13 00:56:05;;;;;;;3.42;2.63;;;;;;;;;;4982801;28;20513;-53
2022/03/13 00:58:31;;;;;;;3.58;2.50;;;;;;;;;;4984101;28;20555;-53
2022/03/13 01:00:57;;;;;;;3.13;2.40;;;;;;;;;;4984559;28;20025;-54
2022/03/13 01:03:35;;;;;;;3.90;2.72;;;;;;;;;;4984226;28;20029;-54
2022/03/13 01:06:01;;;;;;;3.70;2.70;;;;;;;;;;4982984;28;20035;-53
2022/03/13 01:08:28;;;;;;;3.72;2.70;;;;;;;;;;4975622;28;20062;-54
2022/03/13 01:10:55;;;;;;;2.90;2.40;;;;;;;;;;4984585;28;20544;-54
2022/03/13 01:13:21;;;;;;;3.40;2.80;;;;;;;;;;4982948;28;20113;-53
2022/03/13 01:15:48;;;;;;;4.10;2.50;;;;;;;;;;4982140;28;20038;-52
2022/03/13 01:18:15;;;;;;;2.85;2.50;;;;;;;;;;4980388;28;20242;-51
2022/03/13 01:20:41;;;;;;;4.78;2.58;;;;;;;;;;4990415;28;20033;-53
2022/03/13 01:23:11;;;;;;;2.72;2.17;;;;;;;;;;4989272;28;20033;-52
2022/03/13 01:25:38;;;;;;;2.58;2.20;;;;;;;;;;4990741;28;20510;-51
2022/03/13 01:28:04;;;;;;;2.72;2.20;;;;;;;;;;4982768;28;20377;-52
2022/03/13 01:30:30;;;;;;;3.10;2.17;;;;;;;;;;4988342;28;20031;-53
2022/03/13 01:32:56;;;;;;;2.85;1.98;;;;;;;;;;4988590;28;20031;-53
2022/03/13 01:35:24;;;;;;;4.10;2.30;;;;;;;;;;4989696;28;20509;-52
2022/03/13 01:37:51;;;;;;;3.55;2.22;;;;;;;;;;4989433;28;20034;-52
2022/03/13 01:40:24;;;;;;;3.92;2.00;;;;;;;;;;4988769;28;20034;-52
2022/03/13 01:42:51;;;;;;;1.77;1.67;;;;;;;;;;4989496;28;20117;-54
2022/03/13 01:45:18;;;;;;;2.95;1.88;;;;;;;;;;4987939;28;20124;-54
2022/03/13 01:47:45;;;;;;;2.53;2.10;;;;;;;;;;4987994;28;20444;-53
2022/03/13 01:50:12;;;;;;;2.42;1.77;;;;;;;;;;4988436;28;20032;-52
2022/03/13 01:52:40;;;;;;;2.10;1.60;;;;;;;;;;4988795;28;20077;-52
2022/03/13 01:55:06;;;;;;;2.72;1.75;;;;;;;;;;4988477;28;20137;-53
2022/03/13 01:57:37;;;;;;;4.47;2.33;;;;;;;;;;4987761;28;20030;-53
2022/03/13 02:00:07;;;;;;;2.50;1.90;;;;;;;;;;4988248;28;20026;-53
2022/03/13 02:02:34;;;;;;;2.17;1.52;;;;;;;;;;4988170;28;20026;-53
2022/03/13 02:05:00;;;;;;;1.80;1.50;;;;;;;;;;4988121;28;20026;-52
2022/03/13 02:07:27;;;;;;;1.70;1.42;;;;;;;;;;4988462;28;20490;-53
2022/03/13 02:09:55;;;;;;;1.90;1.23;;;;;;;;;;4988918;28;20054;-52
2022/03/13 02:12:21;;;;;;;1.70;1.30;;;;;;;;;;4975462;28;20490;-52
2022/03/13 02:14:49;;;;;;;1.90;1.40;;;;;;;;;;4969233;28;20038;-53
2022/03/13 02:17:24;;;;;;;1.83;1.40;;;;;;;;;;4968066;28;20027;-53
2022/03/13 02:19:51;;;;;;;1.30;1.20;;;;;;;;;;4969612;28;20417;-52
2022/03/13 02:22:18;;;;;;;1.50;1.40;;;;;;;;;;4968497;28;20535;-54
2022/03/13 02:24:49;;;;;;;2.65;1.48;;;;;;;;;;4977502;28;20109;-53
2022/03/13 02:27:19;;;;;;;1.83;1.30;;;;;;;;;;4987544;28;20061;-53
2022/03/13 02:29:45;;;;;;;1.27;1.05;;;;;;;;;;4987503;28;20026;-53
2022/03/13 02:32:12;;;;;;;1.45;1.30;;;;;;;;;;4987393;28;20054;-51
2022/03/13 02:34:38;;;;;;;1.77;1.20;;;;;;;;;;4987981;28;20031;-53
2022/03/13 02:37:04;;;;;;;2.05;1.40;;;;;;;;;;4987639;28;20026;-53
2022/03/13 02:39:35;;;;;;;2.63;1.30;;;;;;;;;;4976284;28;20035;-53
2022/03/13 02:42:01;;;;;;;1.88;1.50;;;;;;;;;;4968168;28;20065;-54
2022/03/13 02:44:27;;;;;;;1.95;1.45;;;;;;;;;;4968233;28;20039;-52
2022/03/13 02:46:55;;;;;;;1.55;1.30;;;;;;;;;;4968604;28;20058;-53
2022/03/13 02:49:21;;;;;;;1.48;1.38;;;;;;;;;;4968735;28;20031;-53
2022/03/13 02:51:52;;;;;;;1.63;1.50;;;;;;;;;;4968160;28;20056;-54
2022/03/13 02:54:20;;;;;;;2.08;1.40;;;;;;;;;;4978878;28;20677;-54
2022/03/13 02:56:47;;;;;;;1.83;1.63;;;;;;;;;;4987560;28;20029;-53
2022/03/13 02:59:13;;;;;;;2.22;1.77;;;;;;;;;;4987193;28;20057;-53
2022/03/13 03:01:41;;;;;;;1.95;1.70;;;;;;;;;;4987137;28;20380;-54
2022/03/13 03:04:08;;;;;;;2.45;1.83;;;;;;;;;;4987226;28;20509;-53
2022/03/13 03:06:34;;;;;;;1.60;1.38;;;;;;;;;;4987289;28;20486;-53
2022/03/13 03:09:04;;;;;;;3.10;1.73;;;;;;;;;;4986200;28;20042;-51
2022/03/13 03:11:33;;;;;;;2.13;1.65;;;;;;;;;;4987262;28;20536;-54
2022/03/13 03:13:59;;;;;;;2.42;1.65;;;;;;;;;;4986611;28;20031;-53
2022/03/13 03:16:26;;;;;;;2.88;1.70;;;;;;;;;;4984806;28;20081;-52
2022/03/13 03:18:53;;;;;;;2.33;1.63;;;;;;;;;;4987509;28;20022;-52
2022/03/13 03:21:20;;;;;;;2.17;1.73;;;;;;;;;;4985985;28;20034;-53
2022/03/13 03:23:46;;;;;;;3.38;2.17;;;;;;;;;;4985871;28;20161;-53
2022/03/13 03:26:12;;;;;;;2.85;1.98;;;;;;;;;;4986631;28;20515;-53
2022/03/13 03:28:38;;;;;;;2.83;1.95;;;;;;;;;;4986960;28;20267;-51
2022/03/13 03:31:04;;;;;;;2.50;1.95;;;;;;;;;;4986986;28;20478;-50
2022/03/13 03:33:32;;;;;;;2.10;1.90;;;;;;;;;;4986767;28;20018;-53
2022/03/13 03:35:58;;;;;;;2.42;1.70;;;;;;;;;;4986609;28;20540;-51
2022/03/13 03:38:24;;;;;;;3.40;2.30;;;;;;;;;;4985729;28;21759;-53
2022/03/13 03:40:51;;;;;;;1.90;1.50;;;;;;;;;;4986076;28;20033;-52
2022/03/13 03:43:18;;;;;;;2.10;1.75;;;;;;;;;;4985906;28;20505;-53
2022/03/13 03:45:44;;;;;;;1.90;1.65;;;;;;;;;;4986439;28;20022;-52
2022/03/13 03:48:10;;;;;;;2.72;1.88;;;;;;;;;;4986323;28;20027;-53
2022/03/13 03:50:37;;;;;;;2.63;1.75;;;;;;;;;;4969584;28;20030;-54
2022/03/13 03:53:03;;;;;;;2.42;1.70;;;;;;;;;;4985890;28;20026;-51
2022/03/13 03:55:30;;;;;;;2.25;1.75;;;;;;;;;;4986484;28;20030;-52
2022/03/13 03:57:57;;;;;;;2.83;1.77;;;;;;;;;;4985955;28;20246;-53
2022/03/13 04:00:24;;;;;;;3.22;2.10;;;;;;;;;;4985979;28;20418;-53
2022/03/13 04:02:50;;;;;;;2.22;1.65;;;;;;;;;;4986168;28;20022;-53
2022/03/13 04:05:16;;;;;;;2.45;1.58;;;;;;;;;;4985783;28;20552;-53
2022/03/13 04:07:42;;;;;;;2.38;1.67;;;;;;;;;;4985453;28;20031;-53
2022/03/13 04:10:09;;;;;;;1.90;1.67;;;;;;;;;;4986423;28;20034;-52
2022/03/13 04:12:36;;;;;;;2.15;1.80;;;;;;;;;;4986783;28;20387;-53
2022/03/13 04:15:03;;;;;;;1.98;1.67;;;;;;;;;;4985490;28;20026;-53
2022/03/13 04:17:29;;;;;;;2.58;1.77;;;;;;;;;;4986327;28;20052;-53
2022/03/13 04:19:56;;;;;;;2.28;1.80;;;;;;;;;;4985277;28;20038;-53
2022/03/13 04:22:23;;;;;;;2.63;1.60;;;;;;;;;;4986313;28;20034;-53
2022/03/13 04:24:49;;;;;;;1.77;1.45;;;;;;;;;;4985949;28;20065;-51
2022/03/13 04:27:15;;;;;;;2.40;1.48;;;;;;;;;;4985686;28;20085;-53
2022/03/13 04:29:41;;;;;;;2.22;1.67;;;;;;;;;;4985566;28;20049;-52
2022/03/13 04:32:08;;;;;;;1.55;1.45;;;;;;;;;;4985922;28;20533;-51
2022/03/13 04:34:34;;;;;;;1.92;1.48;;;;;;;;;;4985659;28;20082;-53
2022/03/13 04:37:02;;;;;;;1.80;1.33;;;;;;;;;;4985344;28;20349;-53
2022/03/13 04:39:35;;;;;;;1.80;1.50;;;;;;;;;;4985730;28;20648;-53
2022/03/13 04:42:05;;;;;;;1.92;1.50;;;;;;;;;;4985195;28;20037;-53
2022/03/13 04:44:32;;;;;;;1.73;1.63;;;;;;;;;;4985511;28;20038;-54
2022/03/13 04:47:00;;;;;;;2.17;1.52;;;;;;;;;;4985065;28;20069;-52
2022/03/13 04:49:27;;;;;;;1.60;1.50;;;;;;;;;;4984838;28;20041;-52
2022/03/13 04:51:53;;;;;;;2.92;1.67;;;;;;;;;;4985441;28;20026;-54
2022/03/13 04:54:19;;;;;;;2.08;1.65;;;;;;;;;;4985395;28;20092;-52
2022/03/13 04:56:45;;;;;;;2.25;1.80;;;;;;;;;;4985377;28;20238;-53
2022/03/13 04:59:11;;;;;;;2.03;1.65;;;;;;;;;;4984924;28;20503;-53
2022/03/13 05:01:37;;;;;;;1.88;1.50;;;;;;;;;;4985888;28;20033;-52
2022/03/13 05:04:05;;;;;;;2.45;1.70;;;;;;;;;;4984822;28;20478;-53
2022/03/13 05:06:33;;;;;;;2.75;1.88;;;;;;;;;;4985680;28;20460;-52
2022/03/13 05:09:00;;;;;;;1.63;1.50;;;;;;;;;;4984933;28;20026;-52
2022/03/13 05:11:26;;;;;;;2.35;1.88;;;;;;;;;;4985167;28;20521;-52
2022/03/13 05:13:52;;;;;;;2.17;1.73;;;;;;;;;;4983585;28;20037;-54
2022/03/13 05:16:19;;;;;;;2.15;1.65;;;;;;;;;;4985776;28;20087;-53
2022/03/13 05:18:46;;;;;;;2.72;2.08;;;;;;;;;;4983305;28;20100;-53
2022/03/13 05:21:12;;;;;;;2.05;1.77;;;;;;;;;;4984992;28;20034;-51
2022/03/13 05:23:38;;;;;;;1.98;1.70;;;;;;;;;;4985210;28;20424;-53
2022/03/13 05:26:04;;;;;;;2.38;1.80;;;;;;;;;;4984634;28;20502;-53
2022/03/13 05:28:30;;;;;;;2.45;1.80;;;;;;;;;;4985386;28;20037;-52
2022/03/13 05:30:56;;;;;;;3.20;2.25;;;;;;;;;;4984969;28;20406;-53
2022/03/13 05:33:23;;;;;;;2.80;2.30;;;;;;;;;;4984349;28;20026;-52
2022/03/13 05:35:50;;;;;;;2.08;1.77;;;;;;;;;;4985684;28;20490;-54
2022/03/13 05:38:16;;;;;;;3.95;2.55;;;;;;;;;;4985222;28;20096;-53
2022/03/13 05:40:42;;;;;;;3.05;2.13;;;;;;;;;;4985103;28;20030;-53
2022/03/13 05:43:11;;;;;;;3.00;2.10;;;;;;;;;;4984836;28;20043;-53
2022/03/13 05:45:39;;;;;;;2.40;2.05;;;;;;;;;;4984348;28;20026;-52
2022/03/13 05:48:09;;;;;;;3.58;2.03;;;;;;;;;;4984789;28;20029;-51
2022/03/13 05:50:35;;;;;;;3.47;2.40;;;;;;;;;;4984279;28;20626;-50
2022/03/13 05:53:01;;;;;;;2.92;2.45;;;;;;;;;;4984639;28;20065;-50
2022/03/13 05:55:28;;;;;;;3.00;2.13;;;;;;;;;;4967249;28;20417;-53
2022/03/13 05:57:55;;;;;;;2.85;1.85;;;;;;;;;;4984540;28;20056;-52
2022/03/13 06:00:23;;;;;;;2.78;2.10;;;;;;;;;;4984670;28;20039;-49
2022/03/13 06:02:50;;;;;;;2.40;1.92;;;;;;;;;;4985420;28;20040;-53
2022/03/13 06:05:17;;;;;;;2.20;1.67;;;;;;;;;;4986718;28;20101;-53
2022/03/13 06:07:48;;;;;;;1.80;1.65;;;;;;;;;;4988847;28;20470;-52
2022/03/13 06:10:14;;;;;;;3.10;2.03;;;;;;;;;;4988022;28;20580;-53
2022/03/13 06:12:41;;;;;;;2.85;2.20;;;;;;;;;;4988396;28;20058;-53
2022/03/13 06:15:08;;;;;;;2.92;2.08;;;;;;;;;;4987758;28;20109;-52
2022/03/13 06:17:44;;;;;;;2.80;2.28;;;;;;;;;;4988133;28;20106;-53
2022/03/13 06:20:11;;;;;;;3.88;2.13;;;;;;;;;;4987216;28;20113;-53
2022/03/13 06:22:42;;;;;;;3.05;2.30;;;;;;;;;;4988371;28;20034;-52
2022/03/13 06:25:09;;;;;;;3.13;2.28;;;;;;;;;;4987976;28;20129;-51
2022/03/13 06:27:35;;;;;;;1.90;1.80;;;;;;;;;;4988049;28;20031;-52
2022/03/13 06:30:11;;;;;;;2.70;1.98;;;;;;;;;;4987430;28;20022;-52
2022/03/13 06:32:37;;;;;;;2.13;1.80;;;;;;;;;;4987349;28;20045;-54
2022/03/13 06:35:04;;;;;;;2.75;2.00;;;;;;;;;;4987952;28;20784;-52
2022/03/13 06:37:30;;;;;;;2.47;2.00;;;;;;;;;;4987723;28;20509;-51
2022/03/13 06:39:57;;;;;;;2.15;1.85;;;;;;;;;;4987567;28;20026;-53
2022/03/13 06:42:24;;;;;;;2.03;1.75;;;;;;;;;;4987771;28;20424;-53
2022/03/13 06:44:51;;;;;;;2.47;1.92;;;;;;;;;;4987815;28;20143;-53
2022/03/13 06:47:17;;;;;;;2.88;2.20;;;;;;;;;;4986455;28;20080;-53
2022/03/13 06:49:43;;;;;;;3.25;2.17;;;;;;;;;;4988928;28;20026;-53
2022/03/13 06:52:09;;;;;;;2.13;1.88;;;;;;;;;;4989145;28;20030;-53
2022/03/13 06:54:35;;;;;;;2.85;2.15;;;;;;;;;;4987483;28;20058;-52
2022/03/13 06:57:01;;;;;;;2.35;1.98;;;;;;;;;;4987536;28;20030;-51
2022/03/13 06:59:28;;;;;;;2.42;2.15;;;;;;;;;;4987678;28;20026;-54
2022/03/13 07:01:54;;;;;;;3.30;2.40;;;;;;;;;;4987220;28;20456;-53
2022/03/13 07:04:21;;;;;;;5.50;3.00;;;;;;;;;;4986270;28;20034;-53
2022/03/13 07:06:47;;;;;;;4.30;3.00;;;;;;;;;;4988268;28;20105;-53
2022/03/13 07:09:13;;;;;;;4.90;2.78;;;;;;;;;;4987290;28;20026;-52
2022/03/13 07:11:49;;;;;;;3.55;2.80;;;;;;;;;;4987868;28;20030;-52
2022/03/13 07:14:17;;;;;;;3.20;2.35;;;;;;;;;;4987368;28;20015;-53
2022/03/13 07:16:43;;;;;;;4.38;2.70;;;;;;;;;;4986322;28;20054;-52
2022/03/13 07:19:10;;;;;;;3.10;2.38;;;;;;;;;;4986190;28;20035;-54
2022/03/13 07:21:38;;;;;;;3.10;1.90;;;;;;;;;;4987575;28;20053;-53
2022/03/13 07:24:04;;;;;;;4.07;3.05;;;;;;;;;;4986907;28;20250;-53
2022/03/13 07:26:31;;;;;;;3.95;3.10;;;;;;;;;;4987178;28;20077;-53
2022/03/13 07:29:01;;;;;;;3.17;2.75;;;;;;;;;;4969219;28;20480;-53
2022/03/13 07:31:27;;;;;;;5.82;3.00;;;;;;;;;;4987072;28;20073;-54
2022/03/13 07:33:53;;;;;;;3.33;2.10;;;;;;;;;;4986440;28;20513;-53
2022/03/13 07:36:19;;;;;;;2.85;2.10;;;;;;;;;;4970303;28;20022;-53
2022/03/13 07:38:45;;;;;;;2.00;1.80;;;;;;;;;;4986662;28;20104;-53
2022/03/13 07:41:11;;;;;;;3.13;2.33;;;;;;;;;;4986519;28;20509;-53
2022/03/13 07:43:37;;;;;;;5.07;4.00;;;;;;;;;;4986363;28;20042;-51
2022/03/13 07:46:03;;;;;;;4.90;3.25;;;;;;;;;;4981542;28;20031;-52
2022/03/13 07:48:30;;;;;;;4.25;3.08;;;;;;;;;;4986658;28;20022;-52
2022/03/13 07:50:57;;;;;;;4.90;3.38;;;;;;;;;;4986349;28;20339;-51
2022/03/13 07:53:27;;;;;;;2.70;2.45;;;;;;;;;;4986404;28;20117;-53
2022/03/13 07:55:53;;;;;;;3.83;2.88;;;;;;;;;;4986228;28;20102;-53
2022/03/13 07:58:20;;;;;;;2.97;2.35;;;;;;;;;;4986670;28;20026;-53
2022/03/13 08:00:46;;;;;;;3.47;2.35;;;;;;;;;;4985959;28;20034;-53
2022/03/13 08:03:12;;;;;;;4.45;3.10;;;;;;;;;;4986416;28;20038;-53
2022/03/13 08:05:39;;;;;;;5.07;3.30;;;;;;;;;;4987654;28;20065;-53
2022/03/13 08:08:05;;;;;;;4.47;3.38;;;;;;;;;;4986891;28;20089;-53
2022/03/13 08:10:31;;;;;;;4.70;3.45;;;;;;;;;;4969942;28;20031;-53
2022/03/13 08:12:57;;;;;;;3.63;2.90;;;;;;;;;;4987188;28;20026;-53
2022/03/13 08:15:23;;;;;;;5.75;3.35;;;;;;;;;;4969771;28;20030;-50
2022/03/13 08:17:49;;;;;;;4.57;2.63;;;;;;;;;;4987178;28;20460;-51
2022/03/13 08:20:16;;;;;;;3.83;2.97;;;;;;;;;;4987719;28;20048;-53
2022/03/13 08:22:42;;;;;;;3.22;2.70;;;;;;;;;;4987328;28;20035;-53
2022/03/13 08:25:10;;;;;;;5.03;2.17;;;;;;;;;;4986052;28;20030;-53
2022/03/13 08:27:37;;;;;;;2.92;1.95;;;;;;;;;;4986633;28;20030;-53
2022/03/13 08:30:04;;;;;;;3.30;2.28;;;;;;;;;;4984849;28;20524;-53
2022/03/13 08:32:30;;;;;;;3.13;2.10;;;;;;;;;;4982399;28;20026;-53
2022/03/13 08:34:56;;;;;;;3.22;2.40;;;;;;;;;;4975747;28;20552;-53
2022/03/13 08:37:23;;;;;;;3.20;2.20;;;;;;;;;;4985831;28;20035;-51
2022/03/13 08:39:49;;;;;;;3.72;2.45;;;;;;;;;;4986494;28;20130;-54
2022/03/13 08:42:15;;;;;;;3.22;2.40;;;;;;;;;;4985793;28;20026;-53
2022/03/13 08:44:41;;;;;;;4.70;3.00;;;;;;;;;;4985907;28;20124;-53
2022/03/13 08:47:07;;;;;;;2.58;2.13;;;;;;;;;;4985337;28;20031;-53
2022/03/13 08:49:33;;;;;;;3.10;2.38;;;;;;;;;;4986759;28;20030;-53
2022/03/13 08:51:59;;;;;;;4.22;2.55;;;;;;;;;;4986663;28;20061;-54
2022/03/13 08:54:26;;;;;;;2.90;2.42;;;;;;;;;;4986340;28;20045;-53
2022/03/13 08:56:52;;;;;;;2.72;2.20;;;;;;;;;;4986680;28;20049;-54
2022/03/13 08:59:23;;;;;;;3.17;2.20;;;;;;;;;;4986414;28;20046;-54
2022/03/13 09:01:49;;;;;;;3.05;2.40;;;;;;;;;;4984107;28;20030;-53
2022/03/13 09:04:15;;;;;;;3.53;1.70;;;;;;;;;;4985488;28;20038;-53
2022/03/13 09:06:43;;;;;;;2.63;2.15;;;;;;;;;;4971438;28;20030;-54
2022/03/13 09:09:09;;;;;;;2.35;2.05;;;;;;;;;;4986412;28;20034;-54
2022/03/13 09:11:36;;;;;;;3.30;2.33;;;;;;;;;;4985506;28;20023;-53
2022/03/13 09:14:03;;;;;;;2.90;2.20;;;;;;;;;;4983778;28;20045;-52
2022/03/13 09:16:31;;;;;;;3.95;2.90;;;;;;;;;;4975310;28;20478;-53
2022/03/13 09:18:57;;;;;;;3.15;2.50;;;;;;;;;;4982152;28;20058;-51
2022/03/13 09:21:24;;;;;;;3.58;2.80;;;;;;;;;;4981103;28;20066;-53
2022/03/13 09:23:50;;;;;;;3.88;2.72;;;;;;;;;;4976810;28;20030;-53
2022/03/13 09:26:16;;;;;;;3.65;2.42;;;;;;;;;;4981393;28;20422;-53
2022/03/13 09:28:43;;;;;;;3.75;2.50;;;;;;;;;;4984124;28;20037;-53
2022/03/13 09:31:10;;;;;;;4.15;2.70;;;;;;;;;;4984827;28;20409;-52
2022/03/13 09:33:36;;;;;;;4.28;2.67;;;;;;;;;;4984827;28;20141;-53
2022/03/13 09:36:03;;;;;;;3.42;2.40;;;;;;;;;;4984337;28;20030;-53
2022/03/13 09:38:29;;;;;;;3.97;2.10;;;;;;;;;;4984656;28;20030;-53
2022/03/13 09:40:55;;;;;;;2.20;1.70;;;;;;;;;;4987163;28;20030;-52
2022/03/13 09:43:21;;;;;;;2.42;1.90;;;;;;;;;;4988491;28;20528;-53
2022/03/13 09:45:49;;;;;;;2.60;1.92;;;;;;;;;;4989136;28;20033;-52
2022/03/13 09:48:18;;;;;;;3.25;1.73;;;;;;;;;;4987291;28;20413;-55
2022/03/13 09:50:44;;;;;;;2.42;1.85;;;;;;;;;;4987030;28;20041;-53
2022/03/13 09:53:11;;;;;;;2.13;1.70;;;;;;;;;;4987864;28;20085;-54
2022/03/13 09:55:39;;;;;;;3.30;2.55;;;;;;;;;;4986058;28;20018;-53
2022/03/13 09:58:08;;;;;;;2.75;1.98;;;;;;;;;;4974843;28;20041;-54
2022/03/13 10:00:35;;;;;;;2.67;1.90;;;;;;;;;;4987239;28;20410;-53
2022/03/13 10:03:05;;;;;;;2.78;1.90;;;;;;;;;;4986121;28;20061;-54
2022/03/13 10:05:42;;;;;;;2.60;1.90;;;;;;;;;;4988509;28;20137;-54
2022/03/13 10:08:08;;;;;;;2.60;2.25;;;;;;;;;;4989309;28;20409;-54
2022/03/13 10:10:42;;;;;;;2.53;1.90;;;;;;;;;;4989209;28;20034;-54
2022/03/13 10:13:08;;;;;;;2.30;1.92;;;;;;;;;;4986317;28;20034;-54
2022/03/13 10:15:44;;;;;;;2.40;1.85;;;;;;;;;;4973188;28;20562;-54
2022/03/13 10:18:14;;;;;;;2.63;2.13;;;;;;;;;;4980570;28;20038;-54
2022/03/13 10:20:41;;;;;;;3.13;2.30;;;;;;;;;;4989389;28;20041;-52
2022/03/13 10:23:12;;;;;;;2.53;1.85;;;;;;;;;;4986772;28;20046;-54
2022/03/13 10:25:42;;;;;;;3.17;2.35;;;;;;;;;;4987365;28;20031;-54
2022/03/13 10:28:17;;;;;;;3.28;2.20;;;;;;;;;;4988460;28;20037;-52
2022/03/13 10:30:43;;;;;;;3.00;2.10;;;;;;;;;;4988906;28;20049;-53
2022/03/13 10:33:10;;;;;;;2.42;1.83;;;;;;;;;;4988714;28;20454;-54
2022/03/13 10:35:38;;;;;;;2.67;2.03;;;;;;;;;;4978942;28;20105;-53
2022/03/13 10:38:13;;;;;;;2.88;2.08;;;;;;;;;;4987639;28;20382;-55
2022/03/13 10:40:39;;;;;;;3.80;2.25;;;;;;;;;;4988941;28;20344;-53
2022/03/13 10:43:08;;;;;;;3.78;2.30;;;;;;;;;;4988566;28;20034;-53
2022/03/13 10:45:37;;;;;;;2.88;2.00;;;;;;;;;;4986608;28;20505;-53
2022/03/13 10:48:19;;;;;;;2.22;1.70;;;;;;;;;;4980910;28;20038;-54
2022/03/13 10:50:47;;;;;;;1.70;1.60;;;;;;;;;;4969598;28;20042;-53
2022/03/13 10:53:14;;;;;;;2.85;1.83;;;;;;;;;;4986654;28;20026;-53
2022/03/13 10:55:41;;;;;;;2.47;1.70;;;;;;;;;;4986701;28;20065;-54
2022/03/13 10:58:08;;;;;;;3.25;2.05;;;;;;;;;;4988227;28;20105;-54
2022/03/13 11:00:34;;;;;;;3.38;2.22;;;;;;;;;;4988511;28;20088;-54
2022/03/13 11:03:29;;;;;;;2.38;2.08;;;;;;;;;;4987490;28;20502;-53
2022/03/13 11:05:55;;;;;;;2.90;1.90;;;;;;;;;;4974553;28;20141;-53
2022/03/13 11:08:21;;;;;;;2.30;1.90;;;;;;;;;;4987797;28;20034;-52
2022/03/13 11:10:48;;;;;;;10.45;2.55;;;;;;;;;;4983977;28;20537;-52
2022/03/13 11:13:15;;;;;;;3.28;2.03;;;;;;;;;;4986147;28;20022;-53
2022/03/13 11:15:44;;;;;;;3.47;2.40;;;;;;;;;;4985138;28;20034;-53
2022/03/13 11:18:11;;;;;;;2.50;1.65;;;;;;;;;;4987758;28;20026;-53
2022/03/13 11:20:40;;;;;;;3.28;2.05;;;;;;;;;;4984228;28;20125;-53
2022/03/13 11:23:08;;;;;;;2.55;2.30;;;;;;;;;;4986840;28;20058;-52
2022/03/13 11:25:38;;;;;;;2.72;1.92;;;;;;;;;;4987554;28;20080;-54
2022/03/13 11:28:04;;;;;;;4.03;2.22;;;;;;;;;;4971120;28;20109;-52
2022/03/13 11:30:37;;;;;;;3.10;2.28;;;;;;;;;;4988667;28;20043;-53
2022/03/13 11:33:04;;;;;;;4.10;2.47;;;;;;;;;;4985070;28;20015;-54
2022/03/13 11:35:31;;;;;;;3.58;2.83;;;;;;;;;;4989307;28;20589;-52
2022/03/13 11:38:03;;;;;;;2.70;2.20;;;;;;;;;;4988293;28;20030;-53
2022/03/13 11:40:39;;;;;;;2.90;2.38;;;;;;;;;;4989236;28;20053;-54
2022/03/13 11:43:15;;;;;;;3.20;2.63;;;;;;;;;;4987639;28;20041;-54
2022/03/13 11:45:42;;;;;;;2.83;1.90;;;;;;;;;;4987162;28;20041;-53
2022/03/13 11:48:18;;;;;;;2.42;1.95;;;;;;;;;;4987749;28;20374;-53
2022/03/13 11:50:51;;;;;;;2.50;1.75;;;;;;;;;;4988465;28;20409;-52
2022/03/13 11:53:18;;;;;;;2.95;1.88;;;;;;;;;;4983724;28;20036;-54
2022/03/13 11:56:00;;;;;;;2.45;2.10;;;;;;;;;;4987098;28;20030;-52
2022/03/13 11:58:46;;;;;;;2.50;1.90;;;;;;;;;;4983852;28;20458;-52
2022/03/13 12:01:18;;;;;;;6.45;3.33;;;;;;;;;;4974244;28;20074;-53
2022/03/13 12:04:07;;;;;;;4.22;2.83;;;;;;;;;;4983508;28;20407;-53
2022/03/13 12:06:53;;;;;;;3.85;2.83;;;;;;;;;;4986117;28;20486;-53
2022/03/13 12:09:20;;;;;;;3.08;2.38;;;;;;;;;;4987691;28;20625;-54
2022/03/13 12:11:50;;;;;;;4.18;2.70;;;;;;;;;;4986778;28;20077;-53
2022/03/13 12:14:16;;;;;;;4.35;2.83;;;;;;;;;;4961268;28;20053;-52
2022/03/13 12:16:43;;;;;;;4.05;2.65;;;;;;;;;;4970085;28;20085;-52
2022/03/13 12:19:10;;;;;;;3.38;2.65;;;;;;;;;;4980019;28;20034;-53
2022/03/13 12:21:37;;;;;;;2.35;1.83;;;;;;;;;;4988280;28;20540;-53
2022/03/13 12:24:15;;;;;;;2.78;2.25;;;;;;;;;;4987141;28;20501;-52
2022/03/13 12:26:52;;;;;;;3.38;2.55;;;;;;;;;;4986534;28;20038;-53
2022/03/13 12:29:20;;;;;;;2.50;1.77;;;;;;;;;;4986151;28;20035;-52
2022/03/13 12:31:48;;;;;;;2.65;1.90;;;;;;;;;;4987006;28;20030;-54
2022/03/13 12:34:36;;;;;;;3.28;2.25;;;;;;;;;;4986462;28;20073;-54
2022/03/13 12:37:08;;;;;;;2.75;2.05;;;;;;;;;;4987056;28;20026;-54
2022/03/13 12:39:35;;;;;;;2.70;2.13;;;;;;;;;;4986524;28;20026;-54
2022/03/13 12:42:02;;;;;;;2.13;1.83;;;;;;;;;;4985997;28;20093;-52
2022/03/13 12:44:29;;;;;;;2.42;1.70;;;;;;;;;;4986346;28;20415;-52
2022/03/13 12:46:56;;;;;;;2.42;1.98;;;;;;;;;;4981484;28;20132;-53
2022/03/13 12:49:34;;;;;;;3.65;2.08;;;;;;;;;;4967113;28;20035;-52
2022/03/13 12:52:00;;;;;;;3.17;2.25;;;;;;;;;;4970188;28;20026;-49
2022/03/13 12:54:29;;;;;;;2.65;2.10;;;;;;;;;;4984154;28;20161;-53
2022/03/13 12:56:55;;;;;;;3.40;1.88;;;;;;;;;;4975865;28;20034;-52
2022/03/13 12:59:22;;;;;;;2.30;1.70;;;;;;;;;;4985886;28;20026;-53
2022/03/13 13:02:01;;;;;;;3.75;2.63;;;;;;;;;;4985867;28;20030;-53
2022/03/13 13:04:27;;;;;;;3.88;2.70;;;;;;;;;;4984477;28;20038;-54
2022/03/13 13:06:53;;;;;;;3.28;2.40;;;;;;;;;;4984319;28;20034;-53
2022/03/13 13:09:30;;;;;;;2.10;1.90;;;;;;;;;;4983614;28;20105;-52
2022/03/13 13:11:57;;;;;;;2.95;1.90;;;;;;;;;;4984889;28;20038;-53
2022/03/13 13:14:27;;;;;;;2.15;1.75;;;;;;;;;;4986026;28;20041;-53
2022/03/13 13:16:54;;;;;;;3.00;2.05;;;;;;;;;;4985507;28;20113;-53
2022/03/13 13:19:20;;;;;;;2.08;1.67;;;;;;;;;;4981792;28;20121;-53
2022/03/13 13:21:56;;;;;;;2.35;2.05;;;;;;;;;;4976203;28;20064;-52
2022/03/13 13:24:42;;;;;;;2.88;2.08;;;;;;;;;;4989477;28;20568;-52
2022/03/13 13:27:09;;;;;;;3.47;2.22;;;;;;;;;;4989696;28;20034;-53
2022/03/13 13:29:36;;;;;;;5.53;2.28;;;;;;;;;;4988358;28;20026;-53
2022/03/13 13:32:21;;;;;;;1.90;1.67;;;;;;;;;;4988297;28;20046;-53
2022/03/13 13:35:19;;;;;;;3.03;1.83;;;;;;;;;;4984595;28;20034;-53
2022/03/13 13:37:57;;;;;;;3.05;1.90;;;;;;;;;;4945941;28;20117;-53
2022/03/13 13:40:25;;;;;;;2.65;1.50;;;;;;;;;;4989005;28;20034;-53
2022/03/13 13:42:55;;;;;;;1.80;1.55;;;;;;;;;;4989214;28;20520;-52
2022/03/13 13:45:25;;;;;;;1.52;1.40;;;;;;;;;;4988001;28;20422;-53
2022/03/13 13:47:51;;;;;;;2.05;1.30;;;;;;;;;;4982641;28;20219;-53
2022/03/13 13:50:18;;;;;;;1.30;1.20;;;;;;;;;;4987811;28;20030;-52
2022/03/13 13:52:44;;;;;;;1.60;1.35;;;;;;;;;;4989538;28;20022;-53
2022/03/13 13:55:23;;;;;;;1.90;1.52;;;;;;;;;;4988684;28;20054;-52
2022/03/13 13:58:10;;;;;;;1.10;1.00;;;;;;;;;;4978873;28;20038;-53
2022/03/13 14:00:39;;;;;;;1.30;1.20;;;;;;;;;;4975123;28;20042;-53
2022/03/13 14:03:05;;;;;;;1.30;1.20;;;;;;;;;;4988822;28;20065;-51
2022/03/13 14:05:33;;;;;;;1.92;1.48;;;;;;;;;;4988875;28;20035;-50
2022/03/13 14:07:59;;;;;;;1.73;1.45;;;;;;;;;;4985611;28;20421;-52
2022/03/13 14:10:26;;;;;;;2.53;1.75;;;;;;;;;;4983380;28;20080;-52
2022/03/13 14:12:54;;;;;;;1.80;1.55;;;;;;;;;;4989025;28;20488;-52
2022/03/13 14:15:21;;;;;;;1.80;1.40;;;;;;;;;;4988280;28;20026;-53
2022/03/13 14:17:48;;;;;;;1.80;1.50;;;;;;;;;;4970049;28;20034;-53
2022/03/13 14:20:14;;;;;;;1.85;1.50;;;;;;;;;;4983606;28;20036;-53
2022/03/13 14:22:43;;;;;;;1.20;1.08;;;;;;;;;;4989039;28;20038;-50
2022/03/13 14:25:09;;;;;;;2.03;1.30;;;;;;;;;;4987469;28;20022;-52
2022/03/13 14:27:35;;;;;;;1.40;1.13;;;;;;;;;;4988716;28;20097;-53
2022/03/13 14:30:03;;;;;;;1.55;1.38;;;;;;;;;;4988158;28;20054;-53
2022/03/13 14:32:29;;;;;;;1.45;1.33;;;;;;;;;;4987773;28;20461;-52
2022/03/13 14:34:55;;;;;;;2.35;1.55;;;;;;;;;;4987260;28;20098;-53
2022/03/13 14:37:21;;;;;;;1.67;1.50;;;;;;;;;;4987626;28;20133;-54
2022/03/13 14:39:51;;;;;;;3.05;1.63;;;;;;;;;;4984356;28;20129;-52
2022/03/13 14:42:17;;;;;;;1.98;1.70;;;;;;;;;;4986067;28;20565;-53
2022/03/13 14:44:44;;;;;;;1.70;1.40;;;;;;;;;;4986038;28;20064;-54
2022/03/13 14:47:10;;;;;;;1.90;1.30;;;;;;;;;;4987379;28;20056;-53
2022/03/13 14:49:36;;;;;;;2.08;1.70;;;;;;;;;;4983939;28;20034;-52